sensor_id;sensor_type;location;lat;lon;timestamp;P1;durP1;ratioP1;P2;durP2;ratioP2
37715;SDS011;23562;50.540;12.504;2022-11-15T00:01:17;14.30;;;8.55;;
37715;SDS011;23562;50.540;12.504;2022-11-15T00:03:42;12.77;;;8.10;;
37715;SDS011;23562;50.540;12.504;2022-11-15T00:06:08;13.67;;;8.13;;
37715;SDS011;23562;50.540;12.504;2022-11-15T00:08:33;11.45;;;7.85;;
37715;SDS011;23562;50.540;12.504;2022-11-15T00:10:59;17.77;;;8.67;;
37715;SDS011;23562;50.540;12.504;2022-11-15T00:13:25;15.80;;;8.13;;
37715;SDS011;23562;50.540;12.504;2022-11-15T00:15:50;14.30;;;8.50;;
37715;SDS011;23562;50.540;12.504;2022-11-15T00:18:16;13.77;;;8.65;;
37715;SDS011;23562;50.540;12.504;2022-11-15T00:20:41;11.18;;;7.40;;
37715;SDS011;23562;50.540;12.504;2022-11-15T00:23:06;16.08;;;8.25;;
37715;SDS011;23562;50.540;12.504;2022-11-15T00:25:32;15.27;;;8.10;;
37715;SDS011;23562;50.540;12.504;2022-11-15T00:27:57;13.18;;;7.93;;
37715;SDS011;23562;50.540;12.504;2022-11-15T00:30:23;14.35;;;7.80;;
37715;SDS011;23562;50.540;12.504;2022-11-15T00:32:48;11.73;;;7.82;;
37715;SDS011;23562;50.540;12.504;2022-11-15T00:35:13;14.73;;;7.72;;
37715;SDS011;23562;50.540;12.504;2022-11-15T00:37:39;17.35;;;8.50;;
37715;SDS011;23562;50.540;12.504;2022-11-15T00:40:04;12.30;;;7.93;;
37715;SDS011;23562;50.540;12.504;2022-11-15T00:42:29;13.35;;;7.63;;
37715;SDS011;23562;50.540;12.504;2022-11-15T00:44:54;14.60;;;7.97;;
37715;SDS011;23562;50.540;12.504;2022-11-15T00:47:19;13.40;;;7.30;;
37715;SDS011;23562;50.540;12.504;2022-11-15T00:49:45;13.87;;;6.67;;
37715;SDS011;23562;50.540;12.504;2022-11-15T00:52:10;11.70;;;7.03;;
37715;SDS011;23562;50.540;12.504;2022-11-15T00:54:35;12.17;;;7.00;;
37715;SDS011;23562;50.540;12.504;2022-11-15T00:57:00;13.10;;;6.90;;
37715;SDS011;23562;50.540;12.504;2022-11-15T00:59:25;12.70;;;7.50;;
37715;SDS011;23562;50.540;12.504;2022-11-15T01:01:50;13.35;;;7.85;;
37715;SDS011;23562;50.540;12.504;2022-11-15T01:04:15;12.97;;;7.93;;
37715;SDS011;23562;50.540;12.504;2022-11-15T01:06:41;11.20;;;6.77;;
37715;SDS011;23562;50.540;12.504;2022-11-15T01:09:06;17.53;;;8.20;;
37715;SDS011;23562;50.540;12.504;2022-11-15T01:11:31;13.20;;;7.67;;
37715;SDS011;23562;50.540;12.504;2022-11-15T01:13:56;14.43;;;7.57;;
37715;SDS011;23562;50.540;12.504;2022-11-15T01:16:21;12.40;;;7.30;;
37715;SDS011;23562;50.540;12.504;2022-11-15T01:18:47;10.70;;;6.97;;
37715;SDS011;23562;50.540;12.504;2022-11-15T01:21:14;13.53;;;7.57;;
37715;SDS011;23562;50.540;12.504;2022-11-15T01:23:39;13.35;;;7.28;;
37715;SDS011;23562;50.540;12.504;2022-11-15T01:26:05;12.10;;;7.50;;
37715;SDS011;23562;50.540;12.504;2022-11-15T01:28:34;13.20;;;7.72;;
37715;SDS011;23562;50.540;12.504;2022-11-15T01:31:00;14.15;;;7.70;;
37715;SDS011;23562;50.540;12.504;2022-11-15T01:33:26;11.85;;;7.40;;
37715;SDS011;23562;50.540;12.504;2022-11-15T01:35:51;16.63;;;7.43;;
37715;SDS011;23562;50.540;12.504;2022-11-15T01:38:16;14.20;;;7.73;;
37715;SDS011;23562;50.540;12.504;2022-11-15T01:40:41;13.00;;;7.80;;
37715;SDS011;23562;50.540;12.504;2022-11-15T01:45:44;12.68;;;7.70;;
37715;SDS011;23562;50.540;12.504;2022-11-15T01:48:11;14.18;;;7.45;;
37715;SDS011;23562;50.540;12.504;2022-11-15T01:50:36;13.80;;;7.37;;
37715;SDS011;23562;50.540;12.504;2022-11-15T01:53:01;11.67;;;7.23;;
37715;SDS011;23562;50.540;12.504;2022-11-15T01:55:27;13.43;;;7.10;;
37715;SDS011;23562;50.540;12.504;2022-11-15T01:57:54;14.07;;;7.10;;
37715;SDS011;23562;50.540;12.504;2022-11-15T02:00:20;13.02;;;6.93;;
37715;SDS011;23562;50.540;12.504;2022-11-15T02:02:45;12.23;;;7.25;;
37715;SDS011;23562;50.540;12.504;2022-11-15T02:05:10;11.50;;;6.35;;
37715;SDS011;23562;50.540;12.504;2022-11-15T02:07:36;13.07;;;7.13;;
37715;SDS011;23562;50.540;12.504;2022-11-15T02:10:04;11.75;;;7.20;;
37715;SDS011;23562;50.540;12.504;2022-11-15T02:12:31;10.83;;;7.53;;
37715;SDS011;23562;50.540;12.504;2022-11-15T02:14:56;11.95;;;6.80;;
37715;SDS011;23562;50.540;12.504;2022-11-15T02:19:53;14.30;;;6.75;;
37715;SDS011;23562;50.540;12.504;2022-11-15T02:32:58;11.55;;;7.07;;
37715;SDS011;23562;50.540;12.504;2022-11-15T02:35:29;13.75;;;7.55;;
37715;SDS011;23562;50.540;12.504;2022-11-15T02:37:58;11.50;;;6.53;;
37715;SDS011;23562;50.540;12.504;2022-11-15T02:42:53;11.60;;;6.72;;
37715;SDS011;23562;50.540;12.504;2022-11-15T02:45:50;12.18;;;6.45;;
37715;SDS011;23562;50.540;12.504;2022-11-15T02:48:16;13.77;;;6.63;;
37715;SDS011;23562;50.540;12.504;2022-11-15T02:50:42;10.15;;;6.30;;
37715;SDS011;23562;50.540;12.504;2022-11-15T02:53:08;12.65;;;6.32;;
37715;SDS011;23562;50.540;12.504;2022-11-15T02:55:34;12.63;;;6.00;;
37715;SDS011;23562;50.540;12.504;2022-11-15T02:58:12;10.18;;;6.03;;
37715;SDS011;23562;50.540;12.504;2022-11-15T03:00:52;8.70;;;5.57;;
37715;SDS011;23562;50.540;12.504;2022-11-15T03:06:19;9.98;;;5.70;;
37715;SDS011;23562;50.540;12.504;2022-11-15T03:08:57;10.40;;;5.53;;
37715;SDS011;23562;50.540;12.504;2022-11-15T03:11:25;10.95;;;5.90;;
37715;SDS011;23562;50.540;12.504;2022-11-15T03:16:19;11.60;;;5.80;;
37715;SDS011;23562;50.540;12.504;2022-11-15T03:18:47;10.15;;;5.00;;
37715;SDS011;23562;50.540;12.504;2022-11-15T03:21:14;10.88;;;5.53;;
37715;SDS011;23562;50.540;12.504;2022-11-15T03:23:40;9.55;;;5.30;;
37715;SDS011;23562;50.540;12.504;2022-11-15T03:26:07;9.15;;;5.03;;
37715;SDS011;23562;50.540;12.504;2022-11-15T03:31:01;10.50;;;5.22;;
37715;SDS011;23562;50.540;12.504;2022-11-15T03:33:48;9.65;;;4.80;;
37715;SDS011;23562;50.540;12.504;2022-11-15T03:36:14;8.75;;;4.72;;
37715;SDS011;23562;50.540;12.504;2022-11-15T03:38:40;7.60;;;4.75;;
37715;SDS011;23562;50.540;12.504;2022-11-15T03:41:08;9.23;;;4.85;;
37715;SDS011;23562;50.540;12.504;2022-11-15T03:43:44;8.25;;;5.05;;
37715;SDS011;23562;50.540;12.504;2022-11-15T03:46:20;9.10;;;4.85;;
37715;SDS011;23562;50.540;12.504;2022-11-15T03:48:49;8.52;;;4.40;;
37715;SDS011;23562;50.540;12.504;2022-11-15T03:51:16;7.35;;;4.45;;
37715;SDS011;23562;50.540;12.504;2022-11-15T03:53:42;8.57;;;4.28;;
37715;SDS011;23562;50.540;12.504;2022-11-15T03:56:07;8.60;;;4.47;;
37715;SDS011;23562;50.540;12.504;2022-11-15T03:58:32;6.20;;;3.73;;
37715;SDS011;23562;50.540;12.504;2022-11-15T04:00:57;7.47;;;4.00;;
37715;SDS011;23562;50.540;12.504;2022-11-15T04:03:24;7.60;;;3.83;;
37715;SDS011;23562;50.540;12.504;2022-11-15T04:05:49;5.95;;;3.55;;
37715;SDS011;23562;50.540;12.504;2022-11-15T04:08:14;6.73;;;3.10;;
37715;SDS011;23562;50.540;12.504;2022-11-15T04:10:39;4.77;;;3.33;;
37715;SDS011;23562;50.540;12.504;2022-11-15T04:13:05;5.50;;;3.50;;
37715;SDS011;23562;50.540;12.504;2022-11-15T04:15:30;11.40;;;3.47;;
37715;SDS011;23562;50.540;12.504;2022-11-15T04:17:56;6.73;;;3.60;;
37715;SDS011;23562;50.540;12.504;2022-11-15T04:20:22;5.25;;;3.80;;
37715;SDS011;23562;50.540;12.504;2022-11-15T04:23:11;5.90;;;3.40;;
37715;SDS011;23562;50.540;12.504;2022-11-15T04:30:57;6.50;;;3.50;;
37715;SDS011;23562;50.540;12.504;2022-11-15T04:33:23;5.77;;;3.27;;
37715;SDS011;23562;50.540;12.504;2022-11-15T04:35:48;6.03;;;3.58;;
37715;SDS011;23562;50.540;12.504;2022-11-15T04:38:33;6.78;;;3.78;;
37715;SDS011;23562;50.540;12.504;2022-11-15T04:40:58;6.63;;;3.72;;
37715;SDS011;23562;50.540;12.504;2022-11-15T04:43:24;5.75;;;3.60;;
37715;SDS011;23562;50.540;12.504;2022-11-15T04:45:49;8.10;;;3.97;;
37715;SDS011;23562;50.540;12.504;2022-11-15T04:48:14;8.17;;;4.30;;
37715;SDS011;23562;50.540;12.504;2022-11-15T04:50:39;4.47;;;3.50;;
37715;SDS011;23562;50.540;12.504;2022-11-15T04:53:04;7.22;;;3.67;;
37715;SDS011;23562;50.540;12.504;2022-11-15T04:55:30;6.40;;;4.10;;
37715;SDS011;23562;50.540;12.504;2022-11-15T04:57:58;6.70;;;3.50;;
37715;SDS011;23562;50.540;12.504;2022-11-15T05:00:24;7.88;;;3.63;;
37715;SDS011;23562;50.540;12.504;2022-11-15T05:02:49;5.47;;;3.08;;
37715;SDS011;23562;50.540;12.504;2022-11-15T05:05:33;5.57;;;3.70;;
37715;SDS011;23562;50.540;12.504;2022-11-15T05:07:59;5.10;;;3.47;;
37715;SDS011;23562;50.540;12.504;2022-11-15T05:10:24;6.68;;;3.70;;
37715;SDS011;23562;50.540;12.504;2022-11-15T05:12:49;5.25;;;3.40;;
37715;SDS011;23562;50.540;12.504;2022-11-15T05:15:14;5.40;;;3.60;;
37715;SDS011;23562;50.540;12.504;2022-11-15T05:17:40;5.57;;;3.80;;
37715;SDS011;23562;50.540;12.504;2022-11-15T05:20:05;7.78;;;4.07;;
37715;SDS011;23562;50.540;12.504;2022-11-15T05:22:31;8.20;;;5.20;;
37715;SDS011;23562;50.540;12.504;2022-11-15T05:24:56;32.37;;;13.97;;
37715;SDS011;23562;50.540;12.504;2022-11-15T05:27:21;39.10;;;19.23;;
37715;SDS011;23562;50.540;12.504;2022-11-15T05:29:46;61.83;;;26.63;;
37715;SDS011;23562;50.540;12.504;2022-11-15T05:32:11;103.40;;;34.57;;
37715;SDS011;23562;50.540;12.504;2022-11-15T05:34:37;85.22;;;30.15;;
37715;SDS011;23562;50.540;12.504;2022-11-15T05:37:02;23.93;;;9.83;;
37715;SDS011;23562;50.540;12.504;2022-11-15T05:39:28;103.20;;;38.42;;
37715;SDS011;23562;50.540;12.504;2022-11-15T05:41:54;59.90;;;23.83;;
37715;SDS011;23562;50.540;12.504;2022-11-15T05:44:21;27.88;;;14.10;;
37715;SDS011;23562;50.540;12.504;2022-11-15T05:46:47;10.75;;;6.85;;
37715;SDS011;23562;50.540;12.504;2022-11-15T05:49:13;8.98;;;5.10;;
37715;SDS011;23562;50.540;12.504;2022-11-15T05:51:40;12.02;;;6.70;;
37715;SDS011;23562;50.540;12.504;2022-11-15T05:54:06;9.55;;;6.22;;
37715;SDS011;23562;50.540;12.504;2022-11-15T05:56:31;13.33;;;6.30;;
37715;SDS011;23562;50.540;12.504;2022-11-15T05:58:56;10.68;;;7.20;;
37715;SDS011;23562;50.540;12.504;2022-11-15T06:01:22;11.30;;;6.95;;
37715;SDS011;23562;50.540;12.504;2022-11-15T06:03:48;8.18;;;5.68;;
37715;SDS011;23562;50.540;12.504;2022-11-15T06:06:13;11.00;;;7.20;;
37715;SDS011;23562;50.540;12.504;2022-11-15T06:08:38;9.13;;;5.97;;
37715;SDS011;23562;50.540;12.504;2022-11-15T06:11:04;10.32;;;5.55;;
37715;SDS011;23562;50.540;12.504;2022-11-15T06:13:29;9.70;;;6.00;;
37715;SDS011;23562;50.540;12.504;2022-11-15T06:15:55;10.95;;;6.10;;
37715;SDS011;23562;50.540;12.504;2022-11-15T06:18:20;8.40;;;5.25;;
37715;SDS011;23562;50.540;12.504;2022-11-15T06:20:45;11.70;;;5.68;;
37715;SDS011;23562;50.540;12.504;2022-11-15T06:23:10;9.73;;;7.93;;
37715;SDS011;23562;50.540;12.504;2022-11-15T06:25:36;10.65;;;7.22;;
37715;SDS011;23562;50.540;12.504;2022-11-15T06:28:01;8.80;;;5.60;;
37715;SDS011;23562;50.540;12.504;2022-11-15T06:30:27;10.70;;;6.33;;
37715;SDS011;23562;50.540;12.504;2022-11-15T06:32:58;8.20;;;5.28;;
37715;SDS011;23562;50.540;12.504;2022-11-15T06:35:23;8.40;;;5.53;;
37715;SDS011;23562;50.540;12.504;2022-11-15T06:37:48;10.00;;;5.50;;
37715;SDS011;23562;50.540;12.504;2022-11-15T06:40:13;11.83;;;7.20;;
37715;SDS011;23562;50.540;12.504;2022-11-15T06:42:39;10.85;;;6.90;;
37715;SDS011;23562;50.540;12.504;2022-11-15T06:45:04;9.67;;;6.30;;
37715;SDS011;23562;50.540;12.504;2022-11-15T06:47:30;10.57;;;5.93;;
37715;SDS011;23562;50.540;12.504;2022-11-15T06:49:55;11.47;;;5.70;;
37715;SDS011;23562;50.540;12.504;2022-11-15T06:52:21;11.63;;;5.45;;
37715;SDS011;23562;50.540;12.504;2022-11-15T06:54:47;8.18;;;5.78;;
37715;SDS011;23562;50.540;12.504;2022-11-15T06:57:12;10.90;;;6.30;;
37715;SDS011;23562;50.540;12.504;2022-11-15T06:59:37;11.20;;;6.70;;
37715;SDS011;23562;50.540;12.504;2022-11-15T07:02:02;11.43;;;6.73;;
37715;SDS011;23562;50.540;12.504;2022-11-15T07:04:28;12.85;;;6.63;;
37715;SDS011;23562;50.540;12.504;2022-11-15T07:06:53;11.67;;;6.87;;
37715;SDS011;23562;50.540;12.504;2022-11-15T07:09:18;10.93;;;6.32;;
37715;SDS011;23562;50.540;12.504;2022-11-15T07:11:43;16.43;;;9.13;;
37715;SDS011;23562;50.540;12.504;2022-11-15T07:14:08;12.77;;;7.35;;
37715;SDS011;23562;50.540;12.504;2022-11-15T07:16:33;12.47;;;7.17;;
37715;SDS011;23562;50.540;12.504;2022-11-15T07:18:59;10.98;;;6.90;;
37715;SDS011;23562;50.540;12.504;2022-11-15T07:21:24;15.20;;;8.30;;
37715;SDS011;23562;50.540;12.504;2022-11-15T07:23:49;10.73;;;6.77;;
37715;SDS011;23562;50.540;12.504;2022-11-15T07:26:14;10.93;;;7.22;;
37715;SDS011;23562;50.540;12.504;2022-11-15T07:28:39;13.15;;;6.97;;
37715;SDS011;23562;50.540;12.504;2022-11-15T07:31:05;13.90;;;8.90;;
37715;SDS011;23562;50.540;12.504;2022-11-15T07:33:33;10.57;;;6.03;;
37715;SDS011;23562;50.540;12.504;2022-11-15T07:35:59;7.75;;;4.95;;
37715;SDS011;23562;50.540;12.504;2022-11-15T07:38:26;8.63;;;5.07;;
37715;SDS011;23562;50.540;12.504;2022-11-15T07:40:58;23.93;;;12.40;;
37715;SDS011;23562;50.540;12.504;2022-11-15T07:43:23;17.33;;;11.65;;
37715;SDS011;23562;50.540;12.504;2022-11-15T07:45:48;12.10;;;6.40;;
37715;SDS011;23562;50.540;12.504;2022-11-15T07:48:13;8.40;;;5.30;;
37715;SDS011;23562;50.540;12.504;2022-11-15T07:50:42;10.63;;;6.03;;
37715;SDS011;23562;50.540;12.504;2022-11-15T07:53:07;10.52;;;6.85;;
37715;SDS011;23562;50.540;12.504;2022-11-15T07:55:33;11.10;;;5.45;;
37715;SDS011;23562;50.540;12.504;2022-11-15T07:58:05;9.55;;;4.97;;
37715;SDS011;23562;50.540;12.504;2022-11-15T08:00:30;9.35;;;4.88;;
37715;SDS011;23562;50.540;12.504;2022-11-15T08:03:09;8.93;;;5.43;;
37715;SDS011;23562;50.540;12.504;2022-11-15T08:05:35;11.63;;;5.60;;
37715;SDS011;23562;50.540;12.504;2022-11-15T08:08:00;9.10;;;5.10;;
37715;SDS011;23562;50.540;12.504;2022-11-15T08:10:26;10.38;;;5.60;;
37715;SDS011;23562;50.540;12.504;2022-11-15T08:12:58;6.65;;;4.10;;
37715;SDS011;23562;50.540;12.504;2022-11-15T08:15:23;13.48;;;4.95;;
37715;SDS011;23562;50.540;12.504;2022-11-15T08:17:52;7.27;;;4.67;;
37715;SDS011;23562;50.540;12.504;2022-11-15T08:20:18;15.90;;;9.02;;
37715;SDS011;23562;50.540;12.504;2022-11-15T08:22:44;11.93;;;7.50;;
37715;SDS011;23562;50.540;12.504;2022-11-15T08:25:09;6.80;;;4.23;;
37715;SDS011;23562;50.540;12.504;2022-11-15T08:27:34;6.47;;;4.82;;
37715;SDS011;23562;50.540;12.504;2022-11-15T08:29:59;7.90;;;4.28;;
37715;SDS011;23562;50.540;12.504;2022-11-15T08:32:25;5.80;;;3.80;;
37715;SDS011;23562;50.540;12.504;2022-11-15T08:34:50;7.43;;;4.10;;
37715;SDS011;23562;50.540;12.504;2022-11-15T08:37:15;5.07;;;3.72;;
37715;SDS011;23562;50.540;12.504;2022-11-15T08:39:40;8.50;;;5.47;;
37715;SDS011;23562;50.540;12.504;2022-11-15T08:42:05;8.80;;;4.40;;
37715;SDS011;23562;50.540;12.504;2022-11-15T08:44:30;7.65;;;4.72;;
37715;SDS011;23562;50.540;12.504;2022-11-15T08:46:55;7.97;;;4.45;;
37715;SDS011;23562;50.540;12.504;2022-11-15T08:49:21;6.38;;;4.15;;
37715;SDS011;23562;50.540;12.504;2022-11-15T08:51:46;8.90;;;4.30;;
37715;SDS011;23562;50.540;12.504;2022-11-15T08:54:11;6.70;;;4.20;;
37715;SDS011;23562;50.540;12.504;2022-11-15T08:56:36;6.38;;;4.32;;
37715;SDS011;23562;50.540;12.504;2022-11-15T08:59:01;8.80;;;4.53;;
37715;SDS011;23562;50.540;12.504;2022-11-15T09:01:26;7.80;;;4.10;;
37715;SDS011;23562;50.540;12.504;2022-11-15T09:03:52;9.23;;;4.43;;
37715;SDS011;23562;50.540;12.504;2022-11-15T09:06:17;6.22;;;3.42;;
37715;SDS011;23562;50.540;12.504;2022-11-15T09:08:43;5.32;;;3.72;;
37715;SDS011;23562;50.540;12.504;2022-11-15T09:11:09;6.38;;;4.38;;
37715;SDS011;23562;50.540;12.504;2022-11-15T09:13:34;8.20;;;4.03;;
37715;SDS011;23562;50.540;12.504;2022-11-15T09:16:01;7.10;;;3.83;;
37715;SDS011;23562;50.540;12.504;2022-11-15T09:18:27;6.63;;;3.60;;
37715;SDS011;23562;50.540;12.504;2022-11-15T09:20:56;5.87;;;3.40;;
37715;SDS011;23562;50.540;12.504;2022-11-15T09:23:22;6.60;;;3.42;;
37715;SDS011;23562;50.540;12.504;2022-11-15T09:25:47;6.07;;;3.40;;
37715;SDS011;23562;50.540;12.504;2022-11-15T09:28:12;4.73;;;3.47;;
37715;SDS011;23562;50.540;12.504;2022-11-15T09:30:37;7.43;;;3.50;;
37715;SDS011;23562;50.540;12.504;2022-11-15T09:33:07;5.22;;;3.03;;
37715;SDS011;23562;50.540;12.504;2022-11-15T09:35:32;7.03;;;3.13;;
37715;SDS011;23562;50.540;12.504;2022-11-15T09:37:57;5.03;;;3.10;;
37715;SDS011;23562;50.540;12.504;2022-11-15T09:40:23;7.40;;;3.60;;
37715;SDS011;23562;50.540;12.504;2022-11-15T09:45:28;4.38;;;2.65;;
37715;SDS011;23562;50.540;12.504;2022-11-15T09:50:40;8.00;;;3.45;;
37715;SDS011;23562;50.540;12.504;2022-11-15T09:53:15;5.07;;;2.83;;
37715;SDS011;23562;50.540;12.504;2022-11-15T09:55:51;4.85;;;2.83;;
37715;SDS011;23562;50.540;12.504;2022-11-15T09:58:26;3.92;;;2.80;;
37715;SDS011;23562;50.540;12.504;2022-11-15T10:00:54;3.45;;;2.42;;
37715;SDS011;23562;50.540;12.504;2022-11-15T10:03:39;3.22;;;2.60;;
37715;SDS011;23562;50.540;12.504;2022-11-15T10:06:10;4.80;;;2.42;;
37715;SDS011;23562;50.540;12.504;2022-11-15T10:08:53;3.83;;;2.45;;
37715;SDS011;23562;50.540;12.504;2022-11-15T10:11:20;5.00;;;2.70;;
37715;SDS011;23562;50.540;12.504;2022-11-15T10:13:47;4.35;;;2.63;;
37715;SDS011;23562;50.540;12.504;2022-11-15T10:24:12;3.97;;;2.40;;
37715;SDS011;23562;50.540;12.504;2022-11-15T10:26:37;6.75;;;2.50;;
37715;SDS011;23562;50.540;12.504;2022-11-15T10:29:03;4.03;;;2.30;;
37715;SDS011;23562;50.540;12.504;2022-11-15T10:31:28;6.60;;;2.40;;
37715;SDS011;23562;50.540;12.504;2022-11-15T10:34:10;5.13;;;2.53;;
37715;SDS011;23562;50.540;12.504;2022-11-15T10:36:36;4.95;;;2.58;;
37715;SDS011;23562;50.540;12.504;2022-11-15T10:39:01;6.30;;;2.73;;
37715;SDS011;23562;50.540;12.504;2022-11-15T10:46:23;4.63;;;2.50;;
37715;SDS011;23562;50.540;12.504;2022-11-15T10:48:49;4.57;;;2.47;;
37715;SDS011;23562;50.540;12.504;2022-11-15T10:51:19;6.70;;;2.57;;
37715;SDS011;23562;50.540;12.504;2022-11-15T10:53:45;7.97;;;3.00;;
37715;SDS011;23562;50.540;12.504;2022-11-15T10:56:11;5.45;;;2.55;;
37715;SDS011;23562;50.540;12.504;2022-11-15T10:58:39;3.35;;;2.33;;
37715;SDS011;23562;50.540;12.504;2022-11-15T11:01:13;5.18;;;2.70;;
37715;SDS011;23562;50.540;12.504;2022-11-15T11:03:39;5.40;;;2.22;;
37715;SDS011;23562;50.540;12.504;2022-11-15T11:08:30;6.72;;;2.28;;
37715;SDS011;23562;50.540;12.504;2022-11-15T11:10:57;4.10;;;2.20;;
37715;SDS011;23562;50.540;12.504;2022-11-15T11:13:24;4.63;;;2.28;;
37715;SDS011;23562;50.540;12.504;2022-11-15T11:16:35;3.80;;;2.20;;
37715;SDS011;23562;50.540;12.504;2022-11-15T11:21:10;5.85;;;2.60;;
37715;SDS011;23562;50.540;12.504;2022-11-15T11:32:06;3.20;;;2.10;;
37715;SDS011;23562;50.540;12.504;2022-11-15T11:34:44;4.28;;;2.20;;
37715;SDS011;23562;50.540;12.504;2022-11-15T11:37:14;5.95;;;2.10;;
37715;SDS011;23562;50.540;12.504;2022-11-15T11:42:17;6.25;;;2.20;;
37715;SDS011;23562;50.540;12.504;2022-11-15T11:44:56;4.13;;;1.98;;
37715;SDS011;23562;50.540;12.504;2022-11-15T11:47:23;2.92;;;1.80;;
37715;SDS011;23562;50.540;12.504;2022-11-15T11:52:16;9.68;;;2.25;;
37715;SDS011;23562;50.540;12.504;2022-11-15T11:57:14;3.70;;;1.83;;
37715;SDS011;23562;50.540;12.504;2022-11-15T11:59:53;3.50;;;1.85;;
37715;SDS011;23562;50.540;12.504;2022-11-15T12:02:27;2.08;;;1.85;;
37715;SDS011;23562;50.540;12.504;2022-11-15T12:04:56;3.72;;;1.75;;
37715;SDS011;23562;50.540;12.504;2022-11-15T12:07:29;4.82;;;1.88;;
37715;SDS011;23562;50.540;12.504;2022-11-15T12:10:12;4.00;;;3.00;;
37715;SDS011;23562;50.540;12.504;2022-11-15T12:12:42;4.65;;;2.83;;
37715;SDS011;23562;50.540;12.504;2022-11-15T12:17:34;3.42;;;1.80;;
37715;SDS011;23562;50.540;12.504;2022-11-15T12:20:05;2.20;;;1.90;;
37715;SDS011;23562;50.540;12.504;2022-11-15T12:22:44;5.90;;;1.90;;
37715;SDS011;23562;50.540;12.504;2022-11-15T12:25:16;3.08;;;2.08;;
37715;SDS011;23562;50.540;12.504;2022-11-15T12:27:45;7.00;;;1.90;;
37715;SDS011;23562;50.540;12.504;2022-11-15T12:30:21;4.15;;;1.92;;
37715;SDS011;23562;50.540;12.504;2022-11-15T12:32:57;4.63;;;1.90;;
37715;SDS011;23562;50.540;12.504;2022-11-15T12:37:54;3.90;;;1.98;;
37715;SDS011;23562;50.540;12.504;2022-11-15T12:40:21;7.25;;;2.10;;
37715;SDS011;23562;50.540;12.504;2022-11-15T12:42:57;7.68;;;2.30;;
37715;SDS011;23562;50.540;12.504;2022-11-15T12:45:24;3.78;;;1.83;;
37715;SDS011;23562;50.540;12.504;2022-11-15T12:47:50;3.45;;;2.25;;
37715;SDS011;23562;50.540;12.504;2022-11-15T12:50:15;4.07;;;2.10;;
37715;SDS011;23562;50.540;12.504;2022-11-15T12:53:09;4.50;;;2.10;;
37715;SDS011;23562;50.540;12.504;2022-11-15T12:55:29;4.07;;;1.80;;
37715;SDS011;23562;50.540;12.504;2022-11-15T12:57:55;3.13;;;1.95;;
37715;SDS011;23562;50.540;12.504;2022-11-15T13:00:40;3.28;;;1.80;;
37715;SDS011;23562;50.540;12.504;2022-11-15T13:03:19;3.40;;;1.83;;
37715;SDS011;23562;50.540;12.504;2022-11-15T13:08:09;3.53;;;1.87;;
37715;SDS011;23562;50.540;12.504;2022-11-15T13:10:54;4.47;;;1.90;;
37715;SDS011;23562;50.540;12.504;2022-11-15T13:13:41;6.47;;;2.17;;
37715;SDS011;23562;50.540;12.504;2022-11-15T13:16:05;5.15;;;2.50;;
37715;SDS011;23562;50.540;12.504;2022-11-15T13:18:37;8.45;;;3.40;;
37715;SDS011;23562;50.540;12.504;2022-11-15T13:21:03;3.88;;;2.40;;
37715;SDS011;23562;50.540;12.504;2022-11-15T13:23:55;5.65;;;2.60;;
37715;SDS011;23562;50.540;12.504;2022-11-15T13:26:20;3.13;;;2.42;;
37715;SDS011;23562;50.540;12.504;2022-11-15T13:28:46;3.90;;;2.40;;
37715;SDS011;23562;50.540;12.504;2022-11-15T13:31:24;4.68;;;2.38;;
37715;SDS011;23562;50.540;12.504;2022-11-15T13:33:50;6.32;;;2.58;;
37715;SDS011;23562;50.540;12.504;2022-11-15T13:36:18;4.63;;;2.60;;
37715;SDS011;23562;50.540;12.504;2022-11-15T13:38:44;7.60;;;3.55;;
37715;SDS011;23562;50.540;12.504;2022-11-15T13:41:22;6.05;;;3.20;;
37715;SDS011;23562;50.540;12.504;2022-11-15T13:43:49;3.65;;;2.40;;
37715;SDS011;23562;50.540;12.504;2022-11-15T13:46:21;4.60;;;2.38;;
37715;SDS011;23562;50.540;12.504;2022-11-15T13:48:57;5.15;;;2.40;;
37715;SDS011;23562;50.540;12.504;2022-11-15T13:53:51;4.30;;;2.22;;
37715;SDS011;23562;50.540;12.504;2022-11-15T13:56:18;4.25;;;2.53;;
37715;SDS011;23562;50.540;12.504;2022-11-15T13:58:44;4.05;;;1.90;;
37715;SDS011;23562;50.540;12.504;2022-11-15T14:01:13;4.18;;;3.03;;
37715;SDS011;23562;50.540;12.504;2022-11-15T14:03:46;7.72;;;3.10;;
37715;SDS011;23562;50.540;12.504;2022-11-15T14:06:13;9.88;;;5.55;;
37715;SDS011;23562;50.540;12.504;2022-11-15T14:08:40;7.20;;;4.22;;
37715;SDS011;23562;50.540;12.504;2022-11-15T14:11:12;24.08;;;14.25;;
37715;SDS011;23562;50.540;12.504;2022-11-15T14:13:38;13.15;;;6.40;;
37715;SDS011;23562;50.540;12.504;2022-11-15T14:18:56;47.22;;;23.25;;
37715;SDS011;23562;50.540;12.504;2022-11-15T14:21:21;38.67;;;19.25;;
37715;SDS011;23562;50.540;12.504;2022-11-15T14:23:46;23.33;;;12.20;;
37715;SDS011;23562;50.540;12.504;2022-11-15T14:26:31;12.68;;;6.93;;
37715;SDS011;23562;50.540;12.504;2022-11-15T14:28:57;13.77;;;6.90;;
37715;SDS011;23562;50.540;12.504;2022-11-15T14:31:42;16.33;;;8.98;;
37715;SDS011;23562;50.540;12.504;2022-11-15T14:34:08;20.30;;;12.90;;
37715;SDS011;23562;50.540;12.504;2022-11-15T14:36:33;20.30;;;14.07;;
37715;SDS011;23562;50.540;12.504;2022-11-15T14:38:58;18.30;;;10.90;;
37715;SDS011;23562;50.540;12.504;2022-11-15T14:41:24;12.15;;;8.95;;
37715;SDS011;23562;50.540;12.504;2022-11-15T14:43:51;12.48;;;8.73;;
37715;SDS011;23562;50.540;12.504;2022-11-15T14:46:17;18.85;;;10.45;;
37715;SDS011;23562;50.540;12.504;2022-11-15T14:48:42;25.35;;;14.63;;
37715;SDS011;23562;50.540;12.504;2022-11-15T14:51:14;21.17;;;11.43;;
37715;SDS011;23562;50.540;12.504;2022-11-15T14:53:40;18.63;;;10.48;;
37715;SDS011;23562;50.540;12.504;2022-11-15T14:56:06;22.38;;;11.50;;
37715;SDS011;23562;50.540;12.504;2022-11-15T14:58:31;14.65;;;8.13;;
37715;SDS011;23562;50.540;12.504;2022-11-15T15:00:56;11.70;;;7.70;;
37715;SDS011;23562;50.540;12.504;2022-11-15T15:03:21;14.80;;;7.50;;
37715;SDS011;23562;50.540;12.504;2022-11-15T15:05:47;12.83;;;7.33;;
37715;SDS011;23562;50.540;12.504;2022-11-15T15:08:12;15.55;;;9.23;;
37715;SDS011;23562;50.540;12.504;2022-11-15T15:10:38;10.70;;;7.17;;
37715;SDS011;23562;50.540;12.504;2022-11-15T15:13:04;9.48;;;5.63;;
37715;SDS011;23562;50.540;12.504;2022-11-15T15:15:31;9.88;;;5.50;;
37715;SDS011;23562;50.540;12.504;2022-11-15T15:17:57;12.23;;;5.88;;
37715;SDS011;23562;50.540;12.504;2022-11-15T15:20:22;11.65;;;7.40;;
37715;SDS011;23562;50.540;12.504;2022-11-15T15:22:47;10.80;;;5.87;;
37715;SDS011;23562;50.540;12.504;2022-11-15T15:25:20;10.13;;;6.67;;
37715;SDS011;23562;50.540;12.504;2022-11-15T15:27:46;9.95;;;5.80;;
37715;SDS011;23562;50.540;12.504;2022-11-15T15:30:11;10.03;;;4.83;;
37715;SDS011;23562;50.540;12.504;2022-11-15T15:32:36;14.55;;;7.95;;
37715;SDS011;23562;50.540;12.504;2022-11-15T15:35:02;22.83;;;13.00;;
37715;SDS011;23562;50.540;12.504;2022-11-15T15:37:27;24.17;;;15.17;;
37715;SDS011;23562;50.540;12.504;2022-11-15T15:39:55;25.83;;;15.50;;
37715;SDS011;23562;50.540;12.504;2022-11-15T15:42:21;21.00;;;13.75;;
37715;SDS011;23562;50.540;12.504;2022-11-15T15:44:47;14.75;;;8.18;;
37715;SDS011;23562;50.540;12.504;2022-11-15T15:47:13;19.23;;;11.75;;
37715;SDS011;23562;50.540;12.504;2022-11-15T15:49:39;22.00;;;13.68;;
37715;SDS011;23562;50.540;12.504;2022-11-15T15:52:05;18.83;;;11.00;;
37715;SDS011;23562;50.540;12.504;2022-11-15T15:54:30;13.05;;;7.68;;